Hortolandia, Brazil
Current Conditions -  °F | °C
As of 1:00 AM on Wednesday 22 Oct 2014 (Local Time) from SBKP Reporting Station
Broken Clouds Broken Clouds  
Wind Chill: 63°   Ceiling: 4500
Heat Index: 63°   Visibility: 6mi
Dew Point: 52°   Wind: 18mph
Humidity: 68%   Direction: 140°SE
Pressure: 30.12"   Gusts: NA
Location:  22.86°S, 47.22°W
Report Text: SBKP 220300Z 14016KT 9999 BKN045 17/11 Q1020
Loading
Personal Weather Stations






























Interactive Weather Map
Tropical Storm Tracking
New forecast layout! Learn more

10-Day Weather Forecast

Advertisements
Track Severe Weather on mobile